Branson, MO

1:19 PM CDT on August 29, 2014 (GMT -0500)
McGoldrick | Change Station
CLOSE
Current Station
Personal Weather Station
Location: Branson, MO
Elevation: 912 ft
Nearby Weather Stations

Elev 912 ft 36.65 °N, 93.20 °W | Updated 5 seconds ago

Mostly Cloudy
Mostly Cloudy
88.6 °F
Feels Like 94 °F
N
3.0
Wind Variable Wind from SW
Gusts 13.0 mph

Today
High -- | Low -- °F
--% Chance of Precip.
Yesterday
High -- | Low -- °F
Precip. -- in
6:41 AM 7:45 PM
Waxing Crescent, 15% visible
Pressure 29.94 in
Visibility 10.0 miles
Clouds Scattered Clouds 4500 ft
Mostly Cloudy 15000 ft
Heat Index 94 °F
Dew Point 70 °F
Humidity 54%
Rainfall 0.00 in
Snow Depth Not available.
UV 5 out of 12
Pollen 10.30 out of 12
Air Quality Not available.
Flu Activity Not available.
METAR KBBG 291745Z 25007KT 10SM SCT045 BKN150 32/19 A2994

More Conditions Fewer Conditions

Pressure 29.94 in
Visibility 10.0 miles
Clouds Scattered Clouds 4500 ft
Mostly Cloudy 15000 ft
Heat Index 94 °F
Dew Point 70 °F
Humidity 54%
Rainfall 0.00 in
Snow Depth Not available.
UV 5 out of 12
Pollen 10.30 out of 12
Air Quality Not available.
Flu Activity Not available.
METAR KBBG 291745Z 25007KT 10SM SCT045 BKN150 32/19 A2994

More Conditions Fewer Conditions

10-Day Weather Forecast

Almanac

Astronomy

Aug. 29, 2014 Rise Set
Actual Time 6:41 AM CDT 7:45 PM CDT
Civil Twilight 6:15 AM CDT 8:11 PM CDT
Nautical Twilight 5:43 AM CDT 8:43 PM CDT
Astronomical Twilight 5:10 AM CDT 9:15 PM CDT
Moon 10:24 AM CDT 9:51 PM CDT
Length of Visible Light 13h 56m
Length of Day
13h 03m
Tomorrow will be 2m 13s shorter.
Waxing Crescent, 15% of the Moon is Illuminated
Today
Waxing Crescent
Sep 2
First Quarter
Sep 8
Full
Sep 15
Last Quarter
Sep 24
New

Today's Extremes

State Highs State Lows

Community

WunderPhotos

Upload Photos

1,748,309 photos uploaded!

Nearby

Snow Depth

Station Depth Elevation
No new snow has been reported.

Earthquake Activity

City Distance Mag. Time & Date
No recent earthquake activity has been reported nearby.
Minimum magnitude displayed is 2.5.

Coastal Water Temperatures

Place Temperature
No Stations Reporting

Nearby Weather Stations